Time;durP1;ratioP1;P1;durP2;ratioP2;P2;SDS_P1;SDS_P2;PMS_P1;PMS_P2;Temp;Humidity;BMP_temperature;BMP_pressure;BME280_temperature;BME280_humidity;BME280_pressure;Samples;Min_cycle;Max_cycle;Signal;HPM_P1;HPM_P2
2021/01/24 00:00:46;;;;;;;9.55;3.92;;;3.10;99.90;;;;;;5031736;28;20029;-76
2021/01/24 00:03:12;;;;;;;5.50;2.53;;;3.10;99.90;;;;;;5045575;28;20052;-76
2021/01/24 00:05:38;;;;;;;9.27;4.68;;;3.10;99.90;;;;;;5043660;28;20044;-76
2021/01/24 00:08:04;;;;;;;7.60;3.50;;;3.20;99.90;;;;;;5045780;28;20028;-76
2021/01/24 00:10:29;;;;;;;6.28;2.58;;;3.20;99.90;;;;;;5042997;28;20512;-76
2021/01/24 00:12:55;;;;;;;6.50;1.63;;;3.20;99.90;;;;;;5036452;28;20025;-76
2021/01/24 00:15:20;;;;;;;7.53;2.40;;;3.20;99.90;;;;;;5044439;28;20037;-76
2021/01/24 00:17:46;;;;;;;4.18;1.75;;;3.10;99.90;;;;;;5035123;28;20421;-76
2021/01/24 00:20:12;;;;;;;3.65;1.25;;;3.10;99.90;;;;;;5043977;28;20482;-76
2021/01/24 00:22:38;;;;;;;6.78;1.27;;;3.10;99.90;;;;;;5034663;28;20028;-75
2021/01/24 00:25:04;;;;;;;3.47;1.25;;;3.10;99.90;;;;;;5045321;28;20041;-76
2021/01/24 00:27:30;;;;;;;4.13;1.42;;;3.10;99.90;;;;;;5043711;28;20035;-76
2021/01/24 00:29:56;;;;;;;4.00;1.55;;;3.10;99.90;;;;;;5045392;28;20041;-76
2021/01/24 00:32:21;;;;;;;2.75;1.10;;;3.10;99.90;;;;;;5042888;28;20101;-76
2021/01/24 00:34:47;;;;;;;3.67;0.85;;;3.10;99.90;;;;;;5044820;28;20029;-76
2021/01/24 00:37:13;;;;;;;4.10;1.30;;;3.10;99.90;;;;;;5043686;28;20025;-76
2021/01/24 00:39:39;;;;;;;4.03;1.42;;;3.10;99.90;;;;;;5045996;28;20028;-76
2021/01/24 00:42:05;;;;;;;5.53;2.80;;;3.10;99.90;;;;;;5038926;28;20063;-76
2021/01/24 00:44:31;;;;;;;6.20;2.50;;;3.10;99.90;;;;;;5040260;28;20053;-76
2021/01/24 00:46:56;;;;;;;4.55;1.90;;;3.00;99.90;;;;;;5040306;28;20506;-76
2021/01/24 00:49:22;;;;;;;3.25;1.20;;;3.00;99.90;;;;;;5039157;28;20124;-76
2021/01/24 00:51:48;;;;;;;3.20;1.17;;;3.00;99.90;;;;;;5041943;28;20406;-76
2021/01/24 00:54:14;;;;;;;5.65;1.17;;;2.90;99.90;;;;;;5037244;28;20091;-76
2021/01/24 00:56:39;;;;;;;4.40;1.42;;;2.90;99.90;;;;;;5043453;28;20036;-76
2021/01/24 00:59:05;;;;;;;5.32;1.90;;;2.90;99.90;;;;;;5035749;28;20063;-76
2021/01/24 01:01:31;;;;;;;6.90;2.40;;;2.70;99.90;;;;;;5043277;28;20052;-76
2021/01/24 01:03:56;;;;;;;9.18;2.67;;;2.60;99.90;;;;;;5044929;28;20072;-76
2021/01/24 01:06:22;;;;;;;8.65;3.15;;;2.50;99.90;;;;;;5043072;28;20052;-76
2021/01/24 01:08:48;;;;;;;9.35;3.58;;;2.60;99.90;;;;;;5045018;28;20025;-76
2021/01/24 01:11:13;;;;;;;6.78;2.97;;;2.50;99.90;;;;;;5043138;28;20454;-76
2021/01/24 01:13:39;;;;;;;8.63;3.40;;;2.50;99.90;;;;;;5044923;28;20029;-76
2021/01/24 01:16:05;;;;;;;7.63;2.72;;;2.50;99.90;;;;;;5038300;28;20033;-76
2021/01/24 01:18:31;;;;;;;5.45;1.88;;;2.50;99.90;;;;;;5038076;28;20043;-76
2021/01/24 01:20:57;;;;;;;5.55;2.05;;;2.50;99.90;;;;;;5041427;28;20037;-76
2021/01/24 01:23:23;;;;;;;5.95;1.73;;;2.50;99.90;;;;;;5043000;28;20060;-76
2021/01/24 01:25:53;;;;;;;4.97;1.80;;;2.50;99.90;;;;;;5041568;28;20068;-76
2021/01/24 01:28:18;;;;;;;7.18;1.90;;;2.50;99.90;;;;;;5033604;28;20033;-76
2021/01/24 01:30:44;;;;;;;4.25;1.80;;;2.50;99.90;;;;;;5043013;28;20041;-76
2021/01/24 01:33:09;;;;;;;6.88;2.65;;;2.50;99.90;;;;;;5032784;28;20029;-76
2021/01/24 01:35:35;;;;;;;5.07;2.50;;;2.50;99.90;;;;;;5033011;28;20553;-76
2021/01/24 01:38:01;;;;;;;4.80;2.15;;;2.40;99.90;;;;;;5042893;28;20037;-76
2021/01/24 01:40:26;;;;;;;5.47;1.80;;;2.40;99.90;;;;;;5040989;28;20083;-76
2021/01/24 01:42:52;;;;;;;5.20;1.58;;;2.40;99.90;;;;;;5041218;28;20115;-76
2021/01/24 01:45:18;;;;;;;3.97;2.00;;;2.40;99.90;;;;;;5032413;28;20060;-76
2021/01/24 01:47:44;;;;;;;4.45;1.95;;;2.40;99.90;;;;;;5043487;28;20133;-76
2021/01/24 01:50:10;;;;;;;5.22;2.05;;;2.40;99.90;;;;;;5040989;28;20037;-76
2021/01/24 01:52:36;;;;;;;4.30;2.30;;;2.20;99.90;;;;;;5041984;28;20043;-76
2021/01/24 01:55:02;;;;;;;5.85;2.08;;;2.00;99.90;;;;;;5034065;28;20029;-76
2021/01/24 01:57:28;;;;;;;6.28;2.00;;;2.10;99.90;;;;;;5040119;28;20041;-76
2021/01/24 01:59:54;;;;;;;7.30;2.55;;;2.10;99.90;;;;;;5036405;28;20038;-76
2021/01/24 02:02:25;;;;;;;4.57;2.00;;;2.20;99.90;;;;;;5038334;28;20592;-76
2021/01/24 02:05:01;;;;;;;4.85;2.58;;;2.20;99.90;;;;;;5035920;28;20096;-76
2021/01/24 02:07:35;;;;;;;5.82;3.08;;;2.20;99.90;;;;;;5042355;28;20044;-76
2021/01/24 02:10:26;;;;;;;7.25;2.40;;;2.20;99.90;;;;;;5040633;28;20025;-76
2021/01/24 02:13:23;;;;;;;5.40;2.20;;;2.20;99.90;;;;;;5040018;28;20593;-76
2021/01/24 02:15:50;;;;;;;5.82;2.05;;;2.20;99.90;;;;;;5044742;28;20068;-76
2021/01/24 02:18:19;;;;;;;4.88;2.22;;;2.20;99.90;;;;;;5046373;28;20173;-76
2021/01/24 02:21:05;;;;;;;5.05;2.22;;;2.10;99.90;;;;;;5044338;28;20342;-76
2021/01/24 02:23:32;;;;;;;7.60;3.97;;;2.20;99.90;;;;;;5046318;28;20044;-76
2021/01/24 02:26:11;;;;;;;7.75;2.75;;;2.10;99.90;;;;;;5044017;28;20040;-76
2021/01/24 02:28:46;;;;;;;9.68;3.20;;;2.10;99.90;;;;;;5045981;28;20035;-76
2021/01/24 02:31:14;;;;;;;8.55;3.00;;;2.10;99.90;;;;;;5043919;28;20032;-76
2021/01/24 02:33:40;;;;;;;9.27;3.15;;;2.10;99.90;;;;;;5045013;28;20040;-76
2021/01/24 02:36:09;;;;;;;7.97;3.80;;;2.20;99.90;;;;;;5043810;28;20035;-76
2021/01/24 02:38:38;;;;;;;5.53;2.92;;;2.20;99.90;;;;;;5045852;28;20029;-76
2021/01/24 02:41:08;;;;;;;8.43;4.20;;;2.20;99.90;;;;;;5039096;28;20038;-76
2021/01/24 02:43:35;;;;;;;6.43;3.30;;;2.30;99.90;;;;;;5041167;28;20029;-76
2021/01/24 02:46:03;;;;;;;5.07;2.80;;;2.20;99.90;;;;;;5039516;28;20786;-76
2021/01/24 02:48:28;;;;;;;8.27;3.35;;;2.20;99.90;;;;;;5040889;28;20053;-76
2021/01/24 02:50:55;;;;;;;4.38;2.53;;;2.20;99.90;;;;;;5043859;28;20108;-76
2021/01/24 02:53:22;;;;;;;6.82;3.40;;;2.30;99.90;;;;;;5043189;28;20445;-76
2021/01/24 02:55:48;;;;;;;6.13;3.63;;;2.30;99.90;;;;;;5043409;28;20025;-76
2021/01/24 02:58:14;;;;;;;12.95;5.78;;;2.30;99.90;;;;;;5045246;28;20025;-76
2021/01/24 03:00:41;;;;;;;8.15;4.65;;;2.20;99.90;;;;;;5044700;28;20075;-76
2021/01/24 03:03:07;;;;;;;6.53;3.97;;;2.10;99.90;;;;;;5044802;28;20033;-76
2021/01/24 03:05:35;;;;;;;15.77;6.20;;;2.10;99.90;;;;;;5045319;28;20381;-76
2021/01/24 03:08:01;;;;;;;8.55;4.68;;;2.10;99.90;;;;;;5044077;28;20549;-76
2021/01/24 03:10:27;;;;;;;7.97;4.93;;;2.20;99.90;;;;;;5044530;28;20064;-76
2021/01/24 03:13:10;;;;;;;9.10;5.95;;;2.20;99.90;;;;;;5043710;28;20021;-76
2021/01/24 03:15:36;;;;;;;8.07;5.28;;;2.20;99.90;;;;;;5044758;28;20428;-76
2021/01/24 03:18:04;;;;;;;9.32;5.07;;;2.20;99.90;;;;;;5034697;28;20041;-76
2021/01/24 03:20:35;;;;;;;6.78;3.58;;;2.20;99.90;;;;;;5045091;28;20037;-76
2021/01/24 03:23:03;;;;;;;8.07;3.65;;;2.20;99.90;;;;;;5034272;28;20043;-76
2021/01/24 03:25:30;;;;;;;6.32;3.20;;;2.20;99.90;;;;;;5043776;28;20037;-76
2021/01/24 03:27:57;;;;;;;6.32;3.20;;;2.20;99.90;;;;;;5034569;28;20029;-76
2021/01/24 03:30:22;;;;;;;7.95;3.55;;;2.10;99.90;;;;;;5043791;28;20119;-76
2021/01/24 03:32:48;;;;;;;8.55;3.90;;;2.10;99.90;;;;;;5042453;28;20063;-76
2021/01/24 03:35:14;;;;;;;14.70;8.20;;;2.10;99.90;;;;;;5044858;28;20037;-76
2021/01/24 03:37:40;;;;;;;10.20;6.63;;;2.10;99.90;;;;;;5042974;28;20070;-76
2021/01/24 03:40:06;;;;;;;8.65;4.90;;;2.00;99.90;;;;;;5043950;28;20033;-75
2021/01/24 03:42:31;;;;;;;10.27;5.35;;;1.90;99.90;;;;;;5042602;28;20028;-76
2021/01/24 03:44:57;;;;;;;9.95;5.18;;;1.90;99.90;;;;;;5044699;28;20061;-76
2021/01/24 03:47:23;;;;;;;14.63;8.18;;;1.90;99.90;;;;;;5042255;28;20060;-76
2021/01/24 03:49:48;;;;;;;15.07;6.45;;;1.90;99.90;;;;;;5044427;28;20021;-76
2021/01/24 03:52:14;;;;;;;10.05;4.03;;;1.80;99.90;;;;;;5042476;28;20497;-76
2021/01/24 03:54:40;;;;;;;9.32;5.30;;;1.90;99.90;;;;;;5034447;28;20025;-76
2021/01/24 03:57:05;;;;;;;9.80;5.82;;;1.90;99.90;;;;;;5043445;28;20064;-76
2021/01/24 03:59:31;;;;;;;8.07;4.63;;;1.80;99.90;;;;;;5042523;28;20056;-76
2021/01/24 04:01:57;;;;;;;9.90;6.13;;;1.80;99.90;;;;;;5043828;28;20448;-76
2021/01/24 04:04:22;;;;;;;8.55;6.00;;;1.80;99.90;;;;;;5042227;28;20479;-76
2021/01/24 04:06:48;;;;;;;10.60;5.60;;;1.80;99.90;;;;;;5044549;28;20047;-76
2021/01/24 04:09:13;;;;;;;10.63;4.88;;;1.70;99.90;;;;;;5033209;28;20391;-76
2021/01/24 04:11:39;;;;;;;7.90;4.65;;;1.70;99.90;;;;;;5043958;28;20032;-76
2021/01/24 04:14:05;;;;;;;7.70;5.13;;;1.70;99.90;;;;;;5035447;28;20029;-76
2021/01/24 04:16:31;;;;;;;7.70;4.20;;;1.70;99.90;;;;;;5041157;28;20033;-75
2021/01/24 04:18:56;;;;;;;9.88;5.80;;;1.70;99.90;;;;;;5041826;28;20033;-76
2021/01/24 04:21:22;;;;;;;11.00;5.70;;;1.70;99.90;;;;;;5043506;28;20072;-76
2021/01/24 04:23:48;;;;;;;12.18;6.90;;;1.70;99.90;;;;;;5042383;28;20031;-75
2021/01/24 04:26:14;;;;;;;10.30;6.63;;;1.70;99.90;;;;;;5043470;28;20056;-76
2021/01/24 04:28:40;;;;;;;18.23;8.00;;;1.70;99.90;;;;;;5039465;28;20029;-76
2021/01/24 04:31:06;;;;;;;17.80;9.93;;;1.60;99.90;;;;;;5036159;28;20039;-76
2021/01/24 04:33:31;;;;;;;9.57;5.22;;;1.30;99.90;;;;;;5042483;28;20024;-75
2021/01/24 04:35:57;;;;;;;17.77;8.48;;;1.40;99.90;;;;;;5043697;28;20094;-75
2021/01/24 04:38:23;;;;;;;14.25;6.75;;;1.30;99.90;;;;;;5034049;28;20061;-76
2021/01/24 04:40:48;;;;;;;11.25;6.95;;;1.30;99.90;;;;;;5042536;28;20032;-76
2021/01/24 04:43:15;;;;;;;16.08;8.00;;;1.40;99.90;;;;;;5041889;28;20356;-76
2021/01/24 04:45:41;;;;;;;9.30;6.28;;;1.40;99.90;;;;;;5043977;28;20052;-76
2021/01/24 04:48:09;;;;;;;10.50;6.97;;;1.40;99.90;;;;;;5037248;28;20025;-76
2021/01/24 04:50:36;;;;;;;13.43;7.55;;;1.40;99.90;;;;;;5038880;28;20032;-76
2021/01/24 04:53:02;;;;;;;13.15;8.10;;;1.40;99.90;;;;;;5038875;28;20026;-75
2021/01/24 04:55:29;;;;;;;9.93;6.32;;;1.40;99.90;;;;;;5037288;28;20068;-76
2021/01/24 04:57:56;;;;;;;11.40;8.30;;;1.40;99.90;;;;;;5040125;28;20033;-75
2021/01/24 05:00:22;;;;;;;13.30;8.90;;;1.40;99.90;;;;;;5035799;28;20390;-76
2021/01/24 05:02:47;;;;;;;20.38;13.15;;;1.50;99.90;;;;;;5059240;22;20036;-76
2021/01/24 05:05:14;;;;;;;17.15;12.75;;;1.50;99.90;;;;;;5052348;28;20119;-75
2021/01/24 05:07:40;;;;;;;9.98;5.20;;;1.40;99.90;;;;;;5062808;28;20041;-76
2021/01/24 05:10:06;;;;;;;9.23;5.97;;;1.40;99.90;;;;;;5061498;28;20032;-76
2021/01/24 05:12:31;;;;;;;9.10;4.55;;;1.40;99.90;;;;;;5062945;28;20020;-76
2021/01/24 05:14:58;;;;;;;8.88;4.60;;;1.40;99.90;;;;;;5062261;28;20048;-76
2021/01/24 05:17:24;;;;;;;6.97;3.42;;;1.40;99.90;;;;;;5063880;28;20496;-75
2021/01/24 05:19:50;;;;;;;6.70;3.33;;;1.40;99.90;;;;;;5051992;28;20032;-76
2021/01/24 05:22:16;;;;;;;6.93;3.08;;;1.40;99.90;;;;;;5064006;28;20210;-76
2021/01/24 05:24:42;;;;;;;6.38;3.70;;;1.40;99.90;;;;;;5062814;28;20029;-76
2021/01/24 05:27:12;;;;;;;5.68;2.72;;;1.40;99.90;;;;;;5064565;28;20029;-75
2021/01/24 05:29:41;;;;;;;7.40;3.75;;;1.40;99.90;;;;;;5055052;28;20028;-76
2021/01/24 05:32:08;;;;;;;6.22;3.47;;;1.30;99.90;;;;;;5061053;28;20481;-75
2021/01/24 05:34:34;;;;;;;8.07;4.22;;;1.30;99.90;;;;;;5060561;28;20021;-75
2021/01/24 05:37:01;;;;;;;7.15;4.10;;;1.30;99.90;;;;;;5059998;28;20111;-76
2021/01/24 05:39:32;;;;;;;10.63;5.70;;;1.30;99.90;;;;;;5057359;28;20252;-75
2021/01/24 05:42:00;;;;;;;10.00;4.78;;;1.30;99.90;;;;;;5059327;28;20032;-75
2021/01/24 05:44:27;;;;;;;8.63;5.00;;;1.30;99.90;;;;;;5062303;28;20045;-76
2021/01/24 05:47:03;;;;;;;8.48;4.53;;;1.30;99.90;;;;;;5057901;28;20028;-76
2021/01/24 05:49:31;;;;;;;7.68;4.15;;;1.30;99.90;;;;;;5064610;28;20063;-75
2021/01/24 05:52:07;;;;;;;7.82;4.43;;;1.30;99.90;;;;;;5060908;28;20472;-75
2021/01/24 05:54:40;;;;;;;13.02;5.22;;;1.30;99.90;;;;;;5066838;28;20025;-75
2021/01/24 05:57:06;;;;;;;12.27;6.07;;;1.30;99.90;;;;;;5068331;28;20242;-76
2021/01/24 05:59:51;;;;;;;10.50;6.15;;;1.20;99.90;;;;;;5066482;28;20032;-75
2021/01/24 06:02:18;;;;;;;8.65;4.97;;;1.20;99.90;;;;;;5067631;28;20468;-75
2021/01/24 06:04:45;;;;;;;10.15;5.32;;;1.20;99.90;;;;;;5061866;28;20497;-75
2021/01/24 06:07:12;;;;;;;10.82;6.00;;;1.10;99.90;;;;;;5056301;28;20065;-75
2021/01/24 06:09:38;;;;;;;10.05;5.10;;;1.10;99.90;;;;;;5064578;28;20470;-75
2021/01/24 06:12:06;;;;;;;9.18;4.57;;;1.10;99.90;;;;;;5053317;28;20021;-75
2021/01/24 06:14:34;;;;;;;7.18;3.55;;;1.10;99.90;;;;;;5049826;28;20557;-76
2021/01/24 06:17:06;;;;;;;8.18;4.32;;;1.10;99.90;;;;;;5056591;28;20377;-75
2021/01/24 06:19:40;;;;;;;7.95;4.70;;;1.10;99.90;;;;;;5051735;28;20059;-76
2021/01/24 06:22:10;;;;;;;9.13;5.40;;;1.10;99.90;;;;;;5060675;28;20032;-76
2021/01/24 06:24:41;;;;;;;11.60;6.38;;;1.10;99.90;;;;;;5053395;28;20029;-75
2021/01/24 06:27:08;;;;;;;15.30;8.95;;;1.10;99.90;;;;;;5051767;28;20024;-75
2021/01/24 06:29:36;;;;;;;13.95;7.75;;;1.10;99.90;;;;;;5063653;28;20531;-75
2021/01/24 06:32:02;;;;;;;13.23;7.78;;;1.00;99.90;;;;;;5062107;28;20054;-75
2021/01/24 06:34:35;;;;;;;13.65;6.97;;;1.00;99.90;;;;;;5055128;28;20079;-75
2021/01/24 06:37:08;;;;;;;11.07;6.30;;;0.80;99.90;;;;;;5055720;28;20090;-75
2021/01/24 06:39:47;;;;;;;11.95;6.45;;;0.90;99.90;;;;;;5061314;28;20709;-75
2021/01/24 06:42:33;;;;;;;12.75;7.50;;;0.90;99.90;;;;;;5049207;28;20068;-75
2021/01/24 06:44:59;;;;;;;11.02;6.43;;;0.90;99.90;;;;;;5061302;28;20109;-75
2021/01/24 06:47:39;;;;;;;10.23;5.75;;;0.90;99.90;;;;;;5057305;28;20033;-76
2021/01/24 06:50:43;;;;;;;10.25;5.90;;;0.90;99.90;;;;;;5051509;28;20086;-76
2021/01/24 06:53:18;;;;;;;12.18;6.88;;;0.90;99.90;;;;;;5056729;28;20367;-75
2021/01/24 06:56:00;;;;;;;11.20;6.57;;;0.80;99.90;;;;;;5063236;28;20599;-75
2021/01/24 06:58:46;;;;;;;14.18;7.75;;;0.80;99.90;;;;;;5061781;28;20043;-75
2021/01/24 07:01:26;;;;;;;12.20;7.80;;;0.80;99.90;;;;;;5048601;28;20025;-75
2021/01/24 07:04:17;;;;;;;11.93;7.93;;;0.80;99.90;;;;;;5056485;28;20080;-75
2021/01/24 07:07:05;;;;;;;14.88;9.27;;;0.70;99.90;;;;;;5050641;28;20114;-75
2021/01/24 07:09:31;;;;;;;12.07;7.13;;;0.70;99.90;;;;;;5025867;28;20068;-75
2021/01/24 07:12:06;;;;;;;12.07;7.13;;;0.80;99.90;;;;;;5057870;28;20037;-75
2021/01/24 07:14:32;;;;;;;17.95;9.35;;;0.80;99.90;;;;;;5056805;28;20029;-75
2021/01/24 07:17:15;;;;;;;18.35;10.45;;;0.70;99.90;;;;;;5050919;28;20576;-75
2021/01/24 07:19:53;;;;;;;17.52;9.80;;;0.70;99.90;;;;;;5059167;28;20032;-75
2021/01/24 07:22:24;;;;;;;20.70;11.15;;;0.70;99.90;;;;;;5058054;28;20088;-75
2021/01/24 07:24:51;;;;;;;21.13;10.80;;;0.70;99.90;;;;;;5059750;28;20120;-75
2021/01/24 07:27:22;;;;;;;20.35;10.63;;;0.70;99.90;;;;;;5057124;28;20500;-74
2021/01/24 07:29:48;;;;;;;17.02;8.43;;;0.70;99.90;;;;;;5059845;28;20444;-74
2021/01/24 07:32:23;;;;;;;11.68;6.65;;;0.60;99.90;;;;;;5059333;28;20056;-74
2021/01/24 07:34:52;;;;;;;11.50;6.70;;;0.60;99.90;;;;;;5057264;28;20159;-74
2021/01/24 07:37:18;;;;;;;13.30;7.30;;;0.60;99.90;;;;;;5055239;28;20394;-75
2021/01/24 07:39:45;;;;;;;15.73;6.95;;;0.60;99.90;;;;;;5055854;28;20062;-74
2021/01/24 07:42:11;;;;;;;11.88;6.35;;;0.60;99.90;;;;;;5054771;28;20072;-74
2021/01/24 07:44:39;;;;;;;10.73;6.03;;;0.60;99.90;;;;;;5054082;28;20507;-75
2021/01/24 07:47:05;;;;;;;8.27;4.95;;;0.60;99.90;;;;;;5053314;28;20131;-75
2021/01/24 07:49:31;;;;;;;7.95;4.30;;;0.60;99.90;;;;;;5057335;28;20078;-76
2021/01/24 07:51:57;;;;;;;11.57;5.47;;;0.60;99.90;;;;;;5054166;28;20032;-75
2021/01/24 07:54:24;;;;;;;8.38;4.38;;;0.60;99.90;;;;;;5056637;28;20037;-75
2021/01/24 07:56:50;;;;;;;9.25;4.88;;;0.70;99.90;;;;;;5053081;28;20381;-75
2021/01/24 07:59:16;;;;;;;9.13;4.80;;;0.70;99.90;;;;;;5052186;28;20167;-75
2021/01/24 08:01:43;;;;;;;10.38;6.07;;;0.70;99.90;;;;;;5058347;28;20031;-75
2021/01/24 08:04:09;;;;;;;13.77;7.00;;;0.70;99.90;;;;;;5053225;28;20068;-75
2021/01/24 08:06:36;;;;;;;11.18;6.05;;;0.70;99.90;;;;;;5053063;28;20025;-75
2021/01/24 08:09:07;;;;;;;12.95;7.00;;;0.70;99.90;;;;;;5057967;28;20463;-75
2021/01/24 08:11:33;;;;;;;55.75;27.20;;;0.70;99.90;;;;;;5049770;28;20542;-75
2021/01/24 08:13:59;;;;;;;105.93;57.03;;;0.70;99.90;;;;;;5051454;28;20071;-75
2021/01/24 08:16:41;;;;;;;47.92;28.67;;;0.70;99.90;;;;;;5033271;28;20625;-75
2021/01/24 08:19:09;;;;;;;16.60;9.93;;;0.70;99.90;;;;;;5053412;28;20446;-75
2021/01/24 08:21:37;;;;;;;13.30;7.45;;;0.70;99.90;;;;;;5057595;28;20528;-75
2021/01/24 08:24:04;;;;;;;14.07;6.72;;;0.70;99.90;;;;;;5059440;28;20649;-75
2021/01/24 08:26:30;;;;;;;9.95;5.75;;;0.70;99.90;;;;;;5053168;28;20028;-76
2021/01/24 08:28:57;;;;;;;19.13;12.32;;;0.70;99.90;;;;;;5043100;28;20162;-77
2021/01/24 08:31:23;;;;;;;15.50;10.15;;;0.70;99.90;;;;;;5054950;28;20029;-76
2021/01/24 08:33:51;;;;;;;19.42;12.70;;;0.70;99.90;;;;;;5056367;28;20032;-75
2021/01/24 08:36:19;;;;;;;11.82;7.60;;;0.80;99.90;;;;;;5057120;28;20028;-76
2021/01/24 08:38:47;;;;;;;7.15;4.50;;;0.70;99.90;;;;;;5053041;28;20045;-76
2021/01/24 08:41:14;;;;;;;8.30;4.68;;;0.70;99.90;;;;;;5056154;28;20048;-75
2021/01/24 08:43:40;;;;;;;10.25;5.38;;;0.70;99.90;;;;;;5059088;28;20075;-76
2021/01/24 08:46:25;;;;;;;10.10;5.20;;;0.80;99.90;;;;;;5051531;28;20083;-76
2021/01/24 08:49:21;;;;;;;8.57;5.00;;;0.80;99.90;;;;;;5058182;28;20892;-75
2021/01/24 08:51:55;;;;;;;7.63;4.72;;;0.80;99.90;;;;;;5045137;28;20036;-75
2021/01/24 08:54:28;;;;;;;7.20;3.97;;;0.80;99.90;;;;;;5057421;28;20028;-75
2021/01/24 08:57:16;;;;;;;8.07;4.30;;;0.80;99.90;;;;;;5052592;28;20029;-75
2021/01/24 08:59:51;;;;;;;7.43;2.97;;;0.90;99.90;;;;;;5056450;28;20087;-75
2021/01/24 09:02:32;;;;;;;6.00;2.60;;;1.00;99.90;;;;;;5049340;28;20561;-75
2021/01/24 09:04:59;;;;;;;9.18;5.88;;;1.10;99.90;;;;;;5050352;28;20053;-75
2021/01/24 09:07:41;;;;;;;9.75;6.55;;;1.20;99.90;;;;;;5051216;28;20091;-76
2021/01/24 09:10:39;;;;;;;12.30;6.20;;;1.30;99.90;;;;;;5059255;28;20037;-75
2021/01/24 09:13:05;;;;;;;8.82;4.78;;;1.40;99.90;;;;;;5053403;28;20057;-75
2021/01/24 09:15:32;;;;;;;8.23;3.67;;;1.40;99.90;;;;;;5060812;28;20029;-75
2021/01/24 09:17:59;;;;;;;9.60;3.58;;;1.50;99.90;;;;;;5055727;28;20037;-75
2021/01/24 09:20:28;;;;;;;7.82;3.42;;;1.60;99.90;;;;;;5052797;28;20098;-75
2021/01/24 09:22:54;;;;;;;7.70;2.92;;;1.60;99.90;;;;;;5055367;28;20091;-75
2021/01/24 09:25:20;;;;;;;10.30;5.82;;;1.60;99.90;;;;;;5063737;28;20028;-75
2021/01/24 09:27:46;;;;;;;8.70;4.97;;;1.60;99.90;;;;;;5058425;28;20505;-75
2021/01/24 09:30:14;;;;;;;5.78;2.00;;;1.50;99.90;;;;;;5051006;28;20476;-75
2021/01/24 09:32:40;;;;;;;6.63;1.88;;;1.60;99.90;;;;;;5056677;28;20032;-75
2021/01/24 09:35:07;;;;;;;5.75;2.88;;;1.50;99.90;;;;;;5060047;28;20650;-75
2021/01/24 09:37:33;;;;;;;6.18;3.00;;;1.60;99.90;;;;;;5049337;28;20033;-75
2021/01/24 09:39:59;;;;;;;11.52;6.40;;;1.80;99.90;;;;;;5061637;28;20032;-75
2021/01/24 09:42:25;;;;;;;16.10;9.48;;;2.00;99.90;;;;;;5054919;28;20072;-75
2021/01/24 09:44:51;;;;;;;24.27;14.15;;;2.20;99.90;;;;;;5062773;28;20167;-75
2021/01/24 09:47:17;;;;;;;22.48;12.82;;;2.30;99.90;;;;;;5054444;28;20045;-75
2021/01/24 09:49:42;;;;;;;28.30;15.70;;;2.30;99.90;;;;;;5055959;28;20029;-75
2021/01/24 09:52:08;;;;;;;19.90;11.07;;;2.40;99.90;;;;;;5052876;28;20583;-74
2021/01/24 09:54:34;;;;;;;25.48;16.33;;;2.50;99.90;;;;;;5060516;28;20032;-74
2021/01/24 09:56:59;;;;;;;19.77;13.30;;;2.50;99.90;;;;;;5059981;28;20040;-74
2021/01/24 09:59:25;;;;;;;17.52;9.35;;;2.60;99.90;;;;;;5057158;28;20111;-74
2021/01/24 10:01:51;;;;;;;13.27;8.38;;;2.70;99.90;;;;;;5049958;28;20107;-74
2021/01/24 10:04:17;;;;;;;12.68;7.35;;;2.70;99.90;;;;;;5061427;28;20044;-75
2021/01/24 10:06:42;;;;;;;14.30;8.20;;;2.90;99.90;;;;;;5053727;28;20036;-75
2021/01/24 10:09:09;;;;;;;13.13;7.10;;;2.90;99.90;;;;;;5058858;28;20054;-75
2021/01/24 10:11:35;;;;;;;15.77;6.05;;;3.00;99.90;;;;;;5056102;28;20086;-75
2021/01/24 10:14:00;;;;;;;20.35;6.53;;;3.10;99.90;;;;;;5055329;28;20036;-75
2021/01/24 10:16:26;;;;;;;12.52;6.15;;;3.20;99.90;;;;;;5036757;28;20041;-75
2021/01/24 10:18:52;;;;;;;11.50;6.60;;;3.20;99.90;;;;;;5057868;28;20043;-75
2021/01/24 10:21:17;;;;;;;12.38;5.88;;;3.10;99.90;;;;;;5061785;28;20051;-76
2021/01/24 10:23:43;;;;;;;17.23;8.30;;;3.00;99.90;;;;;;5062317;28;20195;-75
2021/01/24 10:26:09;;;;;;;16.33;8.30;;;3.10;99.90;;;;;;5054624;28;20032;-75
2021/01/24 10:28:35;;;;;;;14.32;7.72;;;3.30;99.90;;;;;;5056141;28;20414;-75
2021/01/24 10:31:01;;;;;;;12.85;7.10;;;3.40;99.90;;;;;;5062162;28;20200;-75
2021/01/24 10:33:27;;;;;;;8.80;4.55;;;3.50;99.90;;;;;;5058732;28;20456;-75
2021/01/24 10:35:52;;;;;;;16.85;5.25;;;3.60;99.90;;;;;;5051811;28;20029;-75
2021/01/24 10:38:20;;;;;;;9.43;4.80;;;3.60;99.90;;;;;;5060991;28;20102;-75
2021/01/24 10:40:46;;;;;;;6.72;3.08;;;3.60;99.90;;;;;;5064375;28;20025;-75
2021/01/24 10:43:12;;;;;;;6.72;3.03;;;3.70;99.90;;;;;;5054746;28;20546;-75
2021/01/24 10:45:38;;;;;;;8.20;3.40;;;3.70;99.90;;;;;;5059613;28;20236;-75
2021/01/24 10:48:05;;;;;;;8.07;3.05;;;3.80;99.90;;;;;;5044307;28;20480;-75
2021/01/24 10:50:31;;;;;;;12.20;4.00;;;3.80;99.90;;;;;;5063383;28;20575;-75
2021/01/24 10:52:56;;;;;;;27.15;4.78;;;3.90;99.90;;;;;;5060180;28;20116;-75
2021/01/24 10:55:24;;;;;;;9.13;3.35;;;3.90;99.90;;;;;;5053568;28;20048;-75
2021/01/24 10:57:50;;;;;;;19.08;9.05;;;4.00;99.90;;;;;;5060102;28;20021;-76
2021/01/24 11:00:16;;;;;;;18.25;7.45;;;4.10;99.90;;;;;;5059775;28;20048;-75
2021/01/24 11:02:42;;;;;;;13.00;6.30;;;4.00;99.90;;;;;;5058066;28;20039;-75
2021/01/24 11:05:09;;;;;;;14.63;7.22;;;4.20;99.90;;;;;;5055127;28;20061;-76
2021/01/24 11:07:35;;;;;;;12.00;5.25;;;4.30;99.90;;;;;;5058253;28;20672;-75
2021/01/24 11:10:03;;;;;;;8.80;3.53;;;4.30;99.90;;;;;;5056195;28;20070;-75
2021/01/24 11:12:28;;;;;;;7.68;2.15;;;4.40;99.90;;;;;;5060113;28;20424;-75
2021/01/24 11:14:54;;;;;;;4.85;1.65;;;4.40;99.90;;;;;;5062343;28;20040;-75
2021/01/24 11:17:19;;;;;;;2.58;0.95;;;4.20;99.90;;;;;;5058102;28;20050;-75
2021/01/24 11:19:45;;;;;;;3.28;1.10;;;4.30;99.90;;;;;;5056259;28;20039;-75
2021/01/24 11:22:11;;;;;;;3.17;0.70;;;4.30;99.90;;;;;;5054058;28;20037;-75
2021/01/24 11:24:37;;;;;;;11.13;5.03;;;4.40;99.90;;;;;;5061411;28;20381;-75
2021/01/24 11:27:05;;;;;;;7.60;3.08;;;4.60;99.90;;;;;;5063651;28;20029;-76
2021/01/24 11:29:31;;;;;;;7.97;3.05;;;4.60;99.90;;;;;;5049196;28;20025;-76
2021/01/24 11:31:57;;;;;;;4.93;1.38;;;4.60;99.90;;;;;;5055206;28;20060;-76
2021/01/24 11:34:23;;;;;;;2.38;0.70;;;4.70;99.90;;;;;;5055950;28;20088;-75
2021/01/24 11:36:48;;;;;;;2.22;0.70;;;4.70;99.90;;;;;;5055170;28;20054;-75
2021/01/24 11:39:14;;;;;;;2.97;0.93;;;4.80;99.90;;;;;;5064524;28;20469;-76
2021/01/24 11:41:40;;;;;;;3.10;0.90;;;4.80;99.90;;;;;;5055537;28;20036;-76
2021/01/24 11:44:05;;;;;;;1.70;0.60;;;4.90;99.90;;;;;;5054622;28;20469;-77
2021/01/24 11:46:31;;;;;;;1.35;0.50;;;4.80;99.90;;;;;;5054165;28;20047;-78
2021/01/24 11:48:57;;;;;;;1.02;0.40;;;4.80;99.90;;;;;;5053472;28;20429;-78
2021/01/24 11:51:22;;;;;;;2.30;0.65;;;4.80;99.90;;;;;;5059639;28;20040;-77
2021/01/24 11:53:48;;;;;;;2.63;0.70;;;4.80;99.90;;;;;;5051961;28;20051;-78
2021/01/24 11:56:14;;;;;;;1.63;0.65;;;4.80;99.90;;;;;;5058946;28;20600;-77
2021/01/24 11:58:40;;;;;;;3.20;0.90;;;4.80;99.90;;;;;;5057194;28;20024;-78
2021/01/24 12:01:05;;;;;;;3.63;0.80;;;4.80;99.90;;;;;;5052740;28;20047;-78
2021/01/24 12:03:31;;;;;;;2.22;0.90;;;4.90;99.90;;;;;;5039710;28;20049;-77
2021/01/24 12:05:57;;;;;;;4.22;1.50;;;4.90;99.90;;;;;;5036909;28;20443;-78
2021/01/24 12:08:23;;;;;;;2.78;1.00;;;5.00;99.90;;;;;;5056087;28;20051;-77
2021/01/24 12:10:48;;;;;;;2.85;0.90;;;5.00;99.90;;;;;;5036447;28;20029;-78
2021/01/24 12:13:14;;;;;;;5.43;1.15;;;4.80;99.90;;;;;;5055564;28;20051;-77
2021/01/24 12:15:40;;;;;;;3.17;0.80;;;4.90;99.90;;;;;;5034100;28;20132;-77
2021/01/24 12:18:05;;;;;;;3.47;1.30;;;5.00;99.90;;;;;;5053971;28;20025;-78
2021/01/24 12:20:31;;;;;;;4.25;1.25;;;5.10;99.90;;;;;;5049560;28;20040;-78
2021/01/24 12:22:57;;;;;;;3.28;1.30;;;5.10;99.90;;;;;;5035761;28;20040;-77
2021/01/24 12:25:23;;;;;;;4.70;1.52;;;5.10;99.90;;;;;;5051528;28;20035;-78
2021/01/24 12:27:48;;;;;;;3.35;1.10;;;5.30;99.90;;;;;;5049903;28;20056;-78
2021/01/24 12:30:14;;;;;;;1.92;0.60;;;5.30;99.90;;;;;;5048262;28;20029;-78
2021/01/24 12:32:40;;;;;;;1.90;0.60;;;5.40;99.90;;;;;;5051712;28;20029;-78
2021/01/24 12:35:07;;;;;;;1.63;0.60;;;5.50;99.90;;;;;;5050009;28;20532;-77
2021/01/24 12:37:33;;;;;;;0.93;0.40;;;5.50;99.90;;;;;;5033289;28;20068;-78
2021/01/24 12:39:59;;;;;;;1.70;0.47;;;5.70;99.90;;;;;;5033111;28;20064;-78
2021/01/24 12:42:25;;;;;;;2.95;0.60;;;5.70;99.90;;;;;;5053994;28;20601;-78
2021/01/24 12:44:50;;;;;;;1.95;0.68;;;5.70;99.90;;;;;;5033751;28;20033;-78
2021/01/24 12:47:16;;;;;;;1.60;0.50;;;5.80;99.90;;;;;;5051309;28;20370;-78
2021/01/24 12:49:41;;;;;;;3.55;0.70;;;5.80;99.90;;;;;;5028795;28;20128;-78
2021/01/24 12:52:07;;;;;;;2.28;0.75;;;5.80;99.90;;;;;;5030325;28;20029;-78
2021/01/24 12:54:33;;;;;;;2.75;0.65;;;5.80;99.90;;;;;;5051783;28;20056;-78
2021/01/24 12:56:59;;;;;;;2.50;0.70;;;5.90;99.90;;;;;;5055146;28;20277;-78